ETEB/QOB METAR and TAF weather

Enter ICAO airport designator
Station Type Date Time Source
ETEB METAR 2020/01/22 18:11 UTC NOAA

ETEB 221811Z 03004KT 4000 BR OVC005 M03/M03 A3052 RMK AO2A OVC V BKN SLP387 FZRANO $


Station Type Date Time Source
ETEB Decoded METAR 2020/01/22 18:11 UTC NOAA

Ansbach / Katterbach, Germany (ETEB) 49-19N 010-38E 476M
Jan 22, 2020 - 01:11 PM EST / 2020.01.22 1811 UTC
Wind: from the NNE (030 degrees) at 5 MPH (4 KT):0
Visibility: 2 mile(s):0
Sky conditions: overcast
Weather: mist
Temperature: 26 F (-3 C)
Windchill: 19 F (-7 C):1
Dew Point: 26 F (-3 C)
Relative Humidity: 100%
Pressure (altimeter): 30.52 in. Hg (1033 hPa)
ob: ETEB 221811Z 03004KT 4000 BR OVC005 M03/M03 A3052 RMK AO2A OVC V BKN SLP387 FZRANO
cycle: 18

Station Type Date Time Source
ETEB TAF 2020/01/22 18:46 UTC NOAA

TAF
AMD ETEB 221839Z 2218/2320 VRB06KT 4000 BR BKN005 QNH3047INS
BECMG 2221/2222 VRB06KT 5000 BR OVC003 QNH3040INS
BECMG 2223/2224 09006KT 0800 FZFG VV001 620002 QNH3036INS
BECMG 2309/2310 10006KT 2400 BR OVC003 QNH3032INS
BECMG 2312/2313 10006KT 4400 BR OVC004 QNH3022INS TXM01/2308Z TNM05/2219Z

Example: see airport list